Time;durP1;ratioP1;P1;durP2;ratioP2;P2;SDS_P1;SDS_P2;PMS_P1;PMS_P2;Temp;Humidity;BMP_temperature;BMP_pressure;BME280_temperature;BME280_humidity;BME280_pressure;Samples;Min_cycle;Max_cycle;Signal;HPM_P1;HPM_P2
2023/10/01 00:00:43;;;;;;;7.60;4.47;;;;;;;18.66;53.77;98396.53;5067972;28;20330;-57
2023/10/01 00:03:09;;;;;;;8.18;3.83;;;;;;;18.27;54.09;98358.59;5086132;28;20195;-57
2023/10/01 00:05:35;;;;;;;5.65;4.00;;;;;;;18.51;53.84;98385.81;5088233;28;20176;-57
2023/10/01 00:08:01;;;;;;;8.15;4.10;;;;;;;18.45;54.29;98364.63;5047787;28;20247;-58
2023/10/01 00:10:27;;;;;;;5.20;3.75;;;;;;;18.40;54.48;98362.47;5052472;28;20193;-57
2023/10/01 00:12:57;;;;;;;6.90;4.20;;;;;;;18.39;54.88;98380.97;5067615;28;20231;-58
2023/10/01 00:15:25;;;;;;;5.75;4.00;;;;;;;18.44;55.05;98383.94;5067813;28;20615;-57
2023/10/01 00:17:51;;;;;;;5.47;3.95;;;;;;;18.39;55.09;98378.34;5067874;28;20188;-58
2023/10/01 00:20:28;;;;;;;5.10;3.38;;;;;;;18.17;55.83;98363.94;5067787;28;20176;-57
2023/10/01 00:22:59;;;;;;;7.05;4.18;;;;;;;18.21;55.47;98364.44;5067782;28;20241;-57
2023/10/01 00:25:26;;;;;;;4.38;3.97;;;;;;;18.05;55.24;98340.75;5070736;28;20951;-58
2023/10/01 00:27:52;;;;;;;4.25;3.80;;;;;;;18.23;55.10;98355.47;5071280;28;20185;-57
2023/10/01 00:30:17;;;;;;;6.60;3.88;;;;;;;18.47;54.17;98362.69;5031365;28;20197;-57
2023/10/01 00:32:43;;;;;;;9.88;4.28;;;;;;;18.57;53.58;98371.25;5031178;28;20332;-57
2023/10/01 00:35:11;;;;;;;4.60;4.20;;;;;;;18.42;53.28;98329.06;5031202;28;20239;-57
2023/10/01 00:37:36;;;;;;;5.18;3.88;;;;;;;18.64;53.50;98374.88;5031225;28;20177;-57
2023/10/01 00:40:05;;;;;;;9.50;4.05;;;;;;;18.47;53.27;98336.50;5049728;28;20196;-57
2023/10/01 00:42:35;;;;;;;8.45;3.67;;;;;;;18.62;53.17;98346.22;5051108;28;20186;-57
2023/10/01 00:45:07;;;;;;;3.90;3.60;;;;;;;18.76;52.95;98373.66;5051077;28;20201;-57
2023/10/01 00:47:33;;;;;;;8.35;4.00;;;;;;;18.71;52.65;98347.88;5051066;28;20176;-58
2023/10/01 00:50:00;;;;;;;6.70;3.97;;;;;;;18.81;52.29;98342.53;5050953;28;20193;-58
2023/10/01 00:52:28;;;;;;;4.68;3.90;;;;;;;18.74;52.18;98331.03;5050884;28;20204;-58
2023/10/01 00:54:57;;;;;;;4.55;3.97;;;;;;;18.95;52.37;98363.72;5050827;28;20181;-57
2023/10/01 00:57:22;;;;;;;4.28;3.88;;;;;;;18.69;52.64;98328.88;5050909;28;20208;-58
2023/10/01 00:59:48;;;;;;;7.65;4.35;;;;;;;18.66;52.48;98325.75;5011014;28;20776;-58
2023/10/01 01:02:18;;;;;;;13.40;4.00;;;;;;;18.69;52.74;98341.16;5046681;28;20193;-57
2023/10/01 01:04:45;;;;;;;9.32;4.18;;;;;;;18.84;53.14;98357.94;5050692;28;20272;-57
2023/10/01 01:07:23;;;;;;;6.60;3.97;;;;;;;18.66;53.46;98331.00;5050698;28;20657;-57
2023/10/01 01:09:50;;;;;;;5.95;4.50;;;;;;;18.56;53.82;98330.28;5050826;28;20637;-57
2023/10/01 01:12:15;;;;;;;8.25;4.18;;;;;;;18.34;54.48;98322.97;5050388;28;20205;-57
2023/10/01 01:14:44;;;;;;;8.75;4.03;;;;;;;18.40;54.93;98345.91;5050285;28;20211;-57
2023/10/01 01:17:13;;;;;;;5.50;3.65;;;;;;;18.19;55.24;98317.44;5050470;28;20725;-58
2023/10/01 01:19:41;;;;;;;7.40;4.03;;;;;;;18.08;55.57;98309.03;5050408;28;20196;-57
2023/10/01 01:22:09;;;;;;;7.03;4.03;;;;;;;18.13;56.41;98346.88;5050289;28;20669;-57
2023/10/01 01:24:36;;;;;;;7.03;4.18;;;;;;;18.07;56.50;98330.97;5050344;28;20279;-57
2023/10/01 01:27:06;;;;;;;8.02;4.18;;;;;;;18.19;56.45;98330.53;5050308;28;20278;-58
2023/10/01 01:29:40;;;;;;;8.88;4.15;;;;;;;18.08;56.15;98319.50;5050335;28;20173;-58
2023/10/01 01:32:13;;;;;;;6.10;3.83;;;;;;;17.93;56.72;98305.31;5112818;28;20209;-57
2023/10/01 01:34:45;;;;;;;7.93;4.10;;;;;;;18.15;56.53;98336.25;5113115;28;20163;-56
2023/10/01 01:37:20;;;;;;;5.47;4.10;;;;;;;18.09;56.84;98345.56;5113198;28;20186;-56
2023/10/01 01:39:54;;;;;;;5.85;3.90;;;;;;;18.07;56.93;98349.31;5049949;28;20234;-57
2023/10/01 01:42:21;;;;;;;4.50;4.03;;;;;;;17.85;57.61;98341.94;5050088;28;20185;-58
2023/10/01 01:45:18;;;;;;;4.53;4.00;;;;;;;17.85;57.82;98339.31;5049882;28;20280;-58
2023/10/01 01:47:39;;;;;;;6.10;4.20;;;;;;;17.63;58.32;98297.91;5049603;28;20177;-58
2023/10/01 01:50:26;;;;;;;5.85;3.38;;;;;;;17.88;58.21;98318.88;5049777;28;20264;-58
2023/10/01 01:52:56;;;;;;;8.93;3.97;;;;;;;17.93;57.24;98316.63;5049679;28;20275;-58
2023/10/01 01:55:29;;;;;;;4.05;3.75;;;;;;;17.90;57.36;98321.34;5009795;28;20194;-58
2023/10/01 02:00:35;;;;;;;10.10;4.05;;;;;;;17.86;57.93;98327.84;5010022;28;20280;-58
2023/10/01 02:03:17;;;;;;;6.50;3.50;;;;;;;17.83;58.11;98315.09;5009988;28;20276;-58
2023/10/01 02:05:47;;;;;;;7.32;3.85;;;;;;;17.85;57.75;98302.66;5009818;28;20260;-58
2023/10/01 02:08:34;;;;;;;6.78;3.67;;;;;;;17.92;58.22;98337.72;5009771;28;20269;-58
2023/10/01 02:11:09;;;;;;;6.80;4.20;;;;;;;17.92;58.46;98335.09;5049551;28;20184;-58
2023/10/01 02:13:40;;;;;;;5.57;4.07;;;;;;;17.71;58.70;98321.50;5069046;28;20207;-58
2023/10/01 02:19:11;;;;;;;7.63;3.97;;;;;;;17.85;58.44;98331.47;5069269;28;20215;-56
2023/10/01 02:21:43;;;;;;;4.85;3.75;;;;;;;17.94;58.33;98328.75;5069073;28;20228;-56
2023/10/01 02:24:11;;;;;;;5.78;3.80;;;;;;;18.04;57.94;98320.78;5069083;28;20177;-56
2023/10/01 02:26:42;;;;;;;4.55;3.60;;;;;;;18.23;57.38;98338.91;5096069;28;20240;-56
2023/10/01 02:29:13;;;;;;;7.25;3.80;;;;;;;17.99;57.83;98305.53;5112110;28;20500;-57
2023/10/01 02:31:46;;;;;;;8.80;3.95;;;;;;;18.02;57.87;98305.22;5111977;28;20172;-56
2023/10/01 02:34:11;;;;;;;7.00;3.78;;;;;;;18.02;57.68;98317.50;5068665;28;20220;-56
2023/10/01 02:36:42;;;;;;;4.93;3.58;;;;;;;17.85;58.17;98297.44;5068976;28;20212;-57
2023/10/01 02:39:19;;;;;;;4.13;3.72;;;;;;;18.00;57.52;98301.09;5048701;28;20185;-56
2023/10/01 02:42:03;;;;;;;4.95;4.07;;;;;;;17.98;57.72;98297.84;5048802;28;20200;-57
2023/10/01 02:44:28;;;;;;;7.38;3.55;;;;;;;18.23;57.31;98316.16;5008959;28;20716;-57
2023/10/01 02:46:58;;;;;;;6.80;4.25;;;;;;;18.15;57.28;98324.00;5008520;28;20206;-57
2023/10/01 02:49:23;;;;;;;9.93;3.88;;;;;;;18.05;58.20;98318.03;5008336;28;20273;-57
2023/10/01 02:51:49;;;;;;;8.23;4.13;;;;;;;17.97;57.87;98301.44;5008796;28;20317;-57
2023/10/01 02:54:17;;;;;;;7.90;3.80;;;;;;;18.25;57.66;98326.50;5008985;28;20240;-57
2023/10/01 02:59:27;;;;;;;10.30;4.00;;;;;;;18.24;57.15;98307.34;5008986;28;20598;-57
2023/10/01 03:01:55;;;;;;;10.73;4.07;;;;;;;18.16;56.76;98296.81;5008916;28;20190;-57
2023/10/01 03:04:20;;;;;;;4.63;3.35;;;;;;;18.27;57.42;98298.34;5008858;28;20186;-58
2023/10/01 03:06:56;;;;;;;10.20;4.00;;;;;;;18.32;56.73;98290.88;5008947;28;20562;-57
2023/10/01 03:09:31;;;;;;;8.82;3.63;;;;;;;18.46;56.52;98309.44;5008697;28;20197;-58
2023/10/01 03:15:00;;;;;;;6.90;4.13;;;;;;;18.69;55.67;98330.66;5048603;28;20203;-57
2023/10/01 03:17:38;;;;;;;3.90;3.60;;;;;;;18.42;56.46;98307.31;5066395;28;20192;-57
2023/10/01 03:22:53;;;;;;;8.38;4.13;;;;;;;18.27;56.74;98308.81;5106556;28;20190;-57
2023/10/01 03:25:28;;;;;;;5.10;3.50;;;;;;;18.07;57.91;98320.50;5111211;28;20270;-58
2023/10/01 03:28:01;;;;;;;8.02;4.25;;;;;;;18.04;58.06;98328.63;5111307;28;20185;-57
2023/10/01 03:30:32;;;;;;;5.60;4.07;;;;;;;18.03;58.44;98321.78;5111004;28;20175;-57
2023/10/01 03:33:15;;;;;;;4.22;3.92;;;;;;;17.80;58.58;98299.69;5111233;28;20289;-57
2023/10/01 03:35:47;;;;;;;3.88;3.58;;;;;;;17.73;59.07;98288.19;5111215;28;20653;-58
2023/10/01 03:38:14;;;;;;;6.65;4.18;;;;;;;18.04;58.65;98319.00;5111205;28;20209;-57
2023/10/01 03:43:47;;;;;;;5.72;4.05;;;;;;;17.94;58.44;98299.09;5111249;28;20231;-57
2023/10/01 03:46:15;;;;;;;7.97;4.18;;;;;;;18.13;58.03;98327.72;5027831;28;20185;-57
2023/10/01 03:48:57;;;;;;;4.45;4.07;;;;;;;17.91;58.45;98307.28;5028216;28;20585;-57
2023/10/01 03:51:31;;;;;;;9.60;4.78;;;;;;;18.03;58.47;98327.00;5028127;28;20233;-57
2023/10/01 03:54:06;;;;;;;6.47;3.83;;;;;;;17.71;59.34;98311.88;5028218;28;20342;-57
2023/10/01 03:56:33;;;;;;;4.25;3.65;;;;;;;17.82;59.99;98321.28;5028131;28;20589;-57
2023/10/01 03:58:59;;;;;;;6.40;3.83;;;;;;;17.93;59.29;98327.09;5029023;28;20550;-57
2023/10/01 04:01:34;;;;;;;7.13;3.83;;;;;;;17.97;59.46;98335.47;5031943;28;20182;-57
2023/10/01 04:04:00;;;;;;;8.48;3.97;;;;;;;17.74;59.64;98305.50;5031867;28;20184;-57
2023/10/01 04:06:27;;;;;;;5.20;3.88;;;;;;;17.85;60.37;98328.84;5011869;28;20309;-57
2023/10/01 04:08:55;;;;;;;5.70;3.95;;;;;;;17.79;60.34;98313.75;5011910;28;20724;-57
2023/10/01 04:11:41;;;;;;;4.88;3.88;;;;;;;17.84;60.40;98316.72;4953348;29;20184;-57
2023/10/01 04:14:09;;;;;;;7.82;3.80;;;;;;;17.85;60.33;98327.03;4953400;29;20212;-57
2023/10/01 04:16:35;;;;;;;5.22;3.58;;;;;;;18.01;60.41;98335.00;4968058;28;20190;-57
2023/10/01 04:19:00;;;;;;;4.22;3.65;;;;;;;18.01;59.97;98324.53;5011751;28;20524;-57
2023/10/01 04:21:25;;;;;;;6.97;3.75;;;;;;;17.97;59.77;98296.19;5011622;28;20194;-57
2023/10/01 04:23:51;;;;;;;5.30;3.80;;;;;;;18.28;58.42;98336.66;5011677;28;20190;-57
2023/10/01 04:26:17;;;;;;;5.43;3.70;;;;;;;18.37;58.09;98351.50;5011622;28;20660;-57
2023/10/01 04:28:45;;;;;;;6.03;3.65;;;;;;;18.34;57.83;98342.13;5011583;28;20183;-57
2023/10/01 04:31:18;;;;;;;8.70;4.40;;;;;;;18.24;58.13;98362.34;5011514;28;20653;-57
2023/10/01 04:33:47;;;;;;;6.57;4.25;;;;;;;18.14;57.65;98330.16;5011490;28;20260;-57
2023/10/01 04:36:16;;;;;;;7.03;3.88;;;;;;;18.19;57.94;98340.22;4991600;28;20191;-58
2023/10/01 04:38:51;;;;;;;8.32;3.80;;;;;;;18.04;57.71;98310.31;4972432;28;20582;-57
2023/10/01 04:41:18;;;;;;;8.15;4.10;;;;;;;18.06;58.36;98342.38;4974693;28;20666;-57
2023/10/01 04:44:03;;;;;;;8.30;4.22;;;;;;;17.79;58.97;98334.69;5019999;28;20281;-57
2023/10/01 04:46:29;;;;;;;6.97;3.85;;;;;;;17.92;59.36;98372.59;5031060;28;20178;-57
2023/10/01 04:48:56;;;;;;;10.32;4.50;;;;;;;17.63;60.07;98334.53;5030884;28;20189;-57
2023/10/01 04:51:22;;;;;;;5.75;5.00;;;;;;;17.65;60.26;98348.28;5030981;28;20193;-57
2023/10/01 04:53:51;;;;;;;5.03;4.38;;;;;;;17.74;60.86;98373.56;5030678;28;20223;-57
2023/10/01 04:56:25;;;;;;;7.25;4.43;;;;;;;17.70;60.69;98382.69;5030892;28;20252;-57
2023/10/01 04:58:51;;;;;;;5.10;4.60;;;;;;;17.50;60.62;98341.94;5030917;28;20651;-57
2023/10/01 05:01:18;;;;;;;7.60;4.47;;;;;;;17.65;61.00;98375.28;5030673;28;20283;-57
2023/10/01 05:03:44;;;;;;;4.50;3.45;;;;;;;17.64;60.92;98378.03;5030717;28;20193;-57
2023/10/01 05:06:12;;;;;;;7.38;4.20;;;;;;;17.33;61.48;98353.19;5030597;28;20192;-57
2023/10/01 05:08:39;;;;;;;5.05;4.40;;;;;;;17.40;61.99;98393.50;5030648;28;20593;-56
2023/10/01 05:11:10;;;;;;;6.78;4.50;;;;;;;17.45;62.07;98391.28;5030105;28;20186;-57
2023/10/01 05:13:35;;;;;;;4.03;3.63;;;;;;;17.16;62.50;98362.66;5049380;28;20224;-57
2023/10/01 05:16:06;;;;;;;6.22;4.20;;;;;;;17.22;63.25;98392.63;5089894;28;20195;-58
2023/10/01 05:18:33;;;;;;;7.78;3.88;;;;;;;17.04;63.61;98369.06;5113650;28;20179;-57
2023/10/01 05:20:59;;;;;;;5.15;4.35;;;;;;;17.10;64.13;98399.03;5113383;28;20266;-57
2023/10/01 05:23:26;;;;;;;4.40;3.97;;;;;;;16.94;64.05;98368.28;5113322;28;20440;-57
2023/10/01 05:25:51;;;;;;;6.15;4.20;;;;;;;17.00;64.11;98382.56;5113288;28;20183;-58
2023/10/01 05:28:33;;;;;;;6.35;4.65;;;;;;;16.84;64.78;98372.75;5113303;28;20193;-58
2023/10/01 05:31:00;;;;;;;6.10;4.20;;;;;;;16.96;64.56;98376.00;5113367;28;20179;-58
2023/10/01 05:33:27;;;;;;;5.13;4.00;;;;;;;16.96;65.25;98418.63;5113084;28;20207;-58
2023/10/01 05:36:03;;;;;;;5.82;4.10;;;;;;;17.04;65.11;98407.44;5113141;28;20205;-58
2023/10/01 05:38:33;;;;;;;4.20;3.80;;;;;;;17.00;64.99;98401.69;5112891;28;20583;-58
2023/10/01 05:41:03;;;;;;;6.15;4.40;;;;;;;16.88;65.40;98386.34;5112814;28;20218;-58
2023/10/01 05:43:37;;;;;;;6.47;3.80;;;;;;;16.89;65.10;98390.59;5112962;28;20248;-57
2023/10/01 05:46:11;;;;;;;10.15;4.80;;;;;;;16.99;65.46;98418.34;5112893;28;20182;-57
2023/10/01 05:48:39;;;;;;;4.30;3.83;;;;;;;17.01;65.60;98418.19;5112781;28;20167;-58
2023/10/01 05:51:11;;;;;;;11.48;4.35;;;;;;;16.98;65.71;98418.50;5112841;28;20171;-58
2023/10/01 05:53:37;;;;;;;7.57;4.38;;;;;;;17.01;65.26;98395.50;5112638;28;20554;-58
2023/10/01 05:56:10;;;;;;;11.63;4.47;;;;;;;16.96;65.19;98381.22;5112403;28;20689;-58
2023/10/01 05:58:36;;;;;;;5.75;4.40;;;;;;;17.15;65.02;98386.34;5112827;28;20675;-58
2023/10/01 06:01:05;;;;;;;5.05;4.00;;;;;;;17.31;64.33;98392.56;5112558;28;20175;-57
2023/10/01 06:03:33;;;;;;;10.20;4.65;;;;;;;17.40;63.69;98393.50;5112505;28;20176;-58
2023/10/01 06:06:08;;;;;;;5.07;4.00;;;;;;;17.56;64.14;98415.41;5112533;28;20175;-58
2023/10/01 06:08:37;;;;;;;5.28;4.20;;;;;;;17.73;63.47;98417.22;5112423;28;20174;-58
2023/10/01 06:11:05;;;;;;;6.38;4.53;;;;;;;17.77;62.94;98400.25;5111960;28;20244;-57
2023/10/01 06:13:51;;;;;;;5.28;4.10;;;;;;;17.93;62.63;98389.09;5112204;28;20206;-57
2023/10/01 06:16:25;;;;;;;7.53;3.97;;;;;;;18.25;61.54;98415.56;5112194;28;20566;-58
2023/10/01 06:18:57;;;;;;;7.60;4.22;;;;;;;18.21;61.54;98394.09;5112252;28;20175;-57
2023/10/01 06:21:31;;;;;;;8.70;4.15;;;;;;;18.39;60.74;98400.13;5111013;28;20605;-57
2023/10/01 06:24:04;;;;;;;9.20;4.35;;;;;;;18.35;60.63;98379.63;5112172;28;20175;-57
2023/10/01 06:26:36;;;;;;;5.60;4.28;;;;;;;18.81;59.70;98431.66;5112115;28;20615;-58
2023/10/01 06:29:03;;;;;;;7.20;3.78;;;;;;;18.68;59.70;98386.69;5112377;28;20254;-58
2023/10/01 06:31:48;;;;;;;8.43;4.28;;;;;;;18.98;58.64;98420.28;5111589;28;20545;-58
2023/10/01 06:34:24;;;;;;;5.85;3.38;;;;;;;19.32;55.31;98414.06;5111957;28;20186;-58
2023/10/01 06:36:57;;;;;;;4.07;3.75;;;;;;;19.65;55.57;98421.03;5112127;28;20175;-58
2023/10/01 06:39:27;;;;;;;8.30;3.90;;;;;;;19.86;55.86;98424.03;5111880;28;20250;-58
2023/10/01 06:41:53;;;;;;;7.32;3.83;;;;;;;20.16;55.09;98435.75;5111610;28;20223;-57
2023/10/01 06:44:22;;;;;;;6.85;3.95;;;;;;;20.26;54.08;98420.59;5111759;28;20267;-57
2023/10/01 06:46:48;;;;;;;4.18;3.78;;;;;;;20.34;53.42;98402.22;5111624;28;20616;-57
2023/10/01 06:49:18;;;;;;;4.95;3.78;;;;;;;20.69;53.61;98438.66;5111688;28;20171;-57
2023/10/01 06:51:44;;;;;;;11.20;4.30;;;;;;;20.57;52.98;98408.44;5111511;28;20182;-57
2023/10/01 06:54:14;;;;;;;10.43;4.22;;;;;;;20.66;52.66;98431.91;5111621;28;20163;-57
2023/10/01 06:56:47;;;;;;;7.35;3.88;;;;;;;20.81;53.14;98448.63;5111595;28;20186;-57
2023/10/01 06:59:13;;;;;;;7.28;3.83;;;;;;;21.09;50.22;98442.00;5111447;28;20178;-57
2023/10/01 07:01:42;;;;;;;6.47;3.65;;;;;;;21.48;49.36;98448.09;5111502;28;20175;-58
2023/10/01 07:04:11;;;;;;;7.82;3.78;;;;;;;21.74;47.93;98437.28;5111269;28;20600;-57
2023/10/01 07:06:37;;;;;;;4.65;3.33;;;;;;;21.91;48.45;98423.81;5111125;28;20179;-57
2023/10/01 07:09:06;;;;;;;5.00;3.83;;;;;;;22.28;47.36;98446.78;5111307;28;20637;-57
2023/10/01 07:11:34;;;;;;;6.22;3.95;;;;;;;22.25;47.31;98420.78;5111339;28;20178;-58
2023/10/01 07:14:02;;;;;;;5.32;3.63;;;;;;;22.56;45.64;98447.88;5111404;28;20198;-57
2023/10/01 07:16:40;;;;;;;4.95;3.90;;;;;;;22.81;44.65;98444.00;5111337;28;20203;-57
2023/10/01 07:19:11;;;;;;;10.88;3.50;;;;;;;23.18;43.75;98462.41;5111304;28;20304;-57
2023/10/01 07:21:38;;;;;;;7.70;3.78;;;;;;;23.30;43.50;98468.91;5111326;28;20269;-57
2023/10/01 07:24:04;;;;;;;4.13;3.75;;;;;;;23.22;43.14;98434.66;5111190;28;20258;-57
2023/10/01 07:26:30;;;;;;;7.63;4.05;;;;;;;23.39;43.43;98457.22;5111235;28;20236;-57
2023/10/01 07:28:56;;;;;;;3.92;3.50;;;;;;;23.52;43.70;98457.38;5111210;28;20175;-57
2023/10/01 07:31:27;;;;;;;7.50;4.00;;;;;;;23.62;42.81;98460.56;5111148;28;20186;-57
2023/10/01 07:33:54;;;;;;;7.55;3.90;;;;;;;23.67;43.10;98454.53;5113811;28;20336;-57
2023/10/01 07:36:23;;;;;;;5.55;4.25;;;;;;;23.79;43.52;98468.91;5115472;28;20262;-57
2023/10/01 07:38:52;;;;;;;5.10;3.78;;;;;;;23.70;42.93;98442.78;5115281;28;20171;-57
2023/10/01 07:41:27;;;;;;;7.63;3.40;;;;;;;24.00;42.09;98485.84;5115169;28;20730;-57
2023/10/01 07:43:55;;;;;;;6.28;3.95;;;;;;;24.01;42.17;98487.47;5115259;28;20175;-57
2023/10/01 07:46:20;;;;;;;5.93;3.85;;;;;;;23.80;41.81;98453.88;5115130;28;20179;-57
2023/10/01 07:48:51;;;;;;;5.30;3.67;;;;;;;23.77;42.57;98453.44;5115166;28;20220;-57
2023/10/01 07:51:22;;;;;;;5.13;3.78;;;;;;;23.80;41.81;98465.25;5114715;28;20552;-57
2023/10/01 07:53:51;;;;;;;6.97;3.67;;;;;;;23.95;41.65;98489.03;5114875;28;20199;-57
2023/10/01 07:56:17;;;;;;;6.13;4.10;;;;;;;23.92;41.93;98481.47;5114942;28;20187;-57
2023/10/01 07:58:45;;;;;;;4.55;3.45;;;;;;;23.81;41.78;98458.94;5114881;28;20168;-58
2023/10/01 08:03:59;;;;;;;8.15;4.50;;;;;;;24.00;41.17;98507.78;5114611;28;20568;-56
2023/10/01 08:06:30;;;;;;;5.05;3.90;;;;;;;23.82;41.21;98486.19;5115076;28;20258;-56
2023/10/01 08:08:59;;;;;;;5.28;3.50;;;;;;;23.83;41.34;98501.88;5115165;28;20190;-57
2023/10/01 08:14:10;;;;;;;4.22;3.65;;;;;;;23.71;41.20;98518.38;5114926;28;20222;-57
2023/10/01 08:16:48;;;;;;;3.85;3.42;;;;;;;23.50;41.61;98501.66;5114483;28;20171;-57
2023/10/01 08:19:20;;;;;;;3.53;3.20;;;;;;;23.58;41.38;98515.59;5114599;28;20186;-57
2023/10/01 08:21:53;;;;;;;5.50;3.92;;;;;;;23.47;42.00;98520.50;5114495;28;20209;-57
2023/10/01 08:24:33;;;;;;;11.32;4.22;;;;;;;23.52;42.14;98518.97;5114407;28;20646;-57
2023/10/01 08:27:04;;;;;;;3.80;3.28;;;;;;;23.50;41.85;98512.22;5114501;28;20175;-57
2023/10/01 08:29:59;;;;;;;4.30;3.50;;;;;;;23.60;41.82;98531.28;5114319;28;20259;-57
2023/10/01 08:32:15;;;;;;;9.45;3.83;;;;;;;23.60;41.85;98525.97;5113692;28;20206;-57
2023/10/01 08:37:31;;;;;;;6.75;3.30;;;;;;;23.60;41.78;98524.16;5071159;28;20199;-57
2023/10/01 08:39:57;;;;;;;3.38;3.08;;;;;;;23.46;41.69;98503.84;5071120;28;20199;-57
2023/10/01 08:42:28;;;;;;;3.60;3.30;;;;;;;23.59;42.04;98514.59;5070956;28;20264;-58
2023/10/01 08:45:02;;;;;;;4.10;3.70;;;;;;;23.47;42.04;98505.50;5070076;28;20327;-58
2023/10/01 08:47:31;;;;;;;4.05;3.70;;;;;;;23.47;42.13;98510.78;5070910;28;20181;-57
2023/10/01 08:52:55;;;;;;;5.25;4.10;;;;;;;23.45;41.93;98511.94;5070978;28;20239;-58
2023/10/01 08:55:23;;;;;;;5.78;3.60;;;;;;;23.33;42.39;98485.19;5030785;28;20189;-58
2023/10/01 08:57:52;;;;;;;9.27;4.50;;;;;;;23.54;41.69;98518.78;5030752;28;20256;-58
2023/10/01 09:00:20;;;;;;;10.63;3.85;;;;;;;23.62;41.88;98527.44;5030636;28;20190;-58
2023/10/01 09:02:50;;;;;;;6.45;3.80;;;;;;;23.44;41.72;98499.75;5030718;28;20630;-58
2023/10/01 09:05:26;;;;;;;4.47;4.07;;;;;;;23.65;41.82;98508.56;5043630;28;20193;-58
2023/10/01 09:10:50;;;;;;;7.13;4.18;;;;;;;23.78;41.58;98501.63;5070511;28;20279;-58
2023/10/01 09:13:20;;;;;;;7.25;3.50;;;;;;;23.89;41.53;98489.75;5070148;28;20215;-58
2023/10/01 09:15:55;;;;;;;4.00;3.60;;;;;;;23.86;41.59;98476.91;5070283;28;20195;-58
2023/10/01 09:18:25;;;;;;;9.10;3.70;;;;;;;23.99;40.94;98500.88;5070260;28;20571;-57
2023/10/01 09:21:08;;;;;;;4.20;3.80;;;;;;;24.15;40.79;98522.59;5070034;28;20598;-57
2023/10/01 09:23:58;;;;;;;5.43;4.03;;;;;;;24.02;40.88;98497.88;5070168;28;20180;-57
2023/10/01 09:26:39;;;;;;;5.85;3.75;;;;;;;24.17;41.19;98520.59;5094913;28;20187;-57
2023/10/01 09:29:25;;;;;;;6.28;4.18;;;;;;;24.02;41.20;98490.72;5112906;28;20179;-58
2023/10/01 09:31:58;;;;;;;5.38;4.03;;;;;;;24.23;41.00;98513.72;5112947;28;20262;-57
2023/10/01 09:34:31;;;;;;;6.03;3.75;;;;;;;24.30;41.24;98520.72;5112978;28;20256;-57
2023/10/01 09:37:42;;;;;;;6.57;4.20;;;;;;;24.41;41.48;98517.59;5112715;28;20565;-58
2023/10/01 09:42:58;;;;;;;8.98;4.53;;;;;;;24.58;40.74;98515.53;5009850;28;20194;-59
2023/10/01 09:45:37;;;;;;;5.28;3.70;;;;;;;24.58;40.11;98501.50;5010308;28;20203;-58
2023/10/01 09:48:05;;;;;;;7.25;4.47;;;;;;;24.72;39.82;98502.22;5010085;28;20199;-58
2023/10/01 09:50:42;;;;;;;7.15;4.45;;;;;;;24.91;40.13;98506.81;5010021;28;20245;-58
2023/10/01 09:53:15;;;;;;;4.43;4.05;;;;;;;24.82;40.58;98489.47;5009927;28;20206;-58
2023/10/01 09:55:48;;;;;;;4.25;3.85;;;;;;;25.05;39.92;98497.97;5009965;28;20183;-58
2023/10/01 09:58:29;;;;;;;7.50;3.63;;;;;;;24.98;39.85;98478.59;5009962;28;20182;-58
2023/10/01 10:01:01;;;;;;;5.10;4.18;;;;;;;25.30;38.30;98509.78;5009834;28;20186;-58
2023/10/01 10:03:37;;;;;;;7.05;4.22;;;;;;;25.33;38.29;98513.88;5009844;28;20188;-58
2023/10/01 10:06:06;;;;;;;5.47;3.47;;;;;;;25.20;38.16;98481.97;5009785;28;20265;-58
2023/10/01 10:08:39;;;;;;;9.77;4.53;;;;;;;25.45;38.29;98507.81;5009616;28;20190;-57
2023/10/01 10:11:23;;;;;;;4.13;3.78;;;;;;;25.52;38.05;98508.66;5009718;28;20201;-58
2023/10/01 10:13:50;;;;;;;5.05;4.13;;;;;;;25.53;38.24;98491.75;5009388;28;20377;-58
2023/10/01 10:16:32;;;;;;;4.60;3.88;;;;;;;25.61;38.94;98502.16;5009632;28;20179;-58
2023/10/01 10:19:04;;;;;;;4.43;4.03;;;;;;;25.78;37.99;98497.38;5016198;28;20273;-58
2023/10/01 10:24:35;;;;;;;11.35;4.10;;;;;;;25.95;37.82;98499.47;5112042;28;20187;-57
2023/10/01 10:27:09;;;;;;;6.47;3.90;;;;;;;25.88;37.59;98466.78;5112116;28;20180;-57
2023/10/01 10:29:46;;;;;;;3.95;3.63;;;;;;;26.16;37.14;98490.56;5112012;28;20182;-57
2023/10/01 10:32:24;;;;;;;4.93;3.85;;;;;;;26.21;37.13;98491.59;5111854;28;20203;-58
2023/10/01 10:35:04;;;;;;;5.03;3.70;;;;;;;26.34;36.69;98494.28;5111849;28;20269;-57
2023/10/01 10:37:43;;;;;;;5.88;4.20;;;;;;;26.45;36.89;98498.97;5111806;28;20225;-57
2023/10/01 10:40:12;;;;;;;4.30;3.55;;;;;;;26.55;36.57;98502.09;5111811;28;20187;-57
2023/10/01 10:42:44;;;;;;;5.80;3.83;;;;;;;26.66;36.10;98498.81;5111785;28;20244;-57
2023/10/01 10:45:19;;;;;;;7.47;4.25;;;;;;;26.82;36.12;98502.91;5111415;28;20530;-57
2023/10/01 10:48:14;;;;;;;8.27;4.00;;;;;;;26.81;35.90;98493.28;5111778;28;20196;-57
2023/10/01 10:50:53;;;;;;;4.72;3.58;;;;;;;26.88;35.79;98480.84;5111045;28;20189;-57
2023/10/01 10:53:21;;;;;;;7.28;3.97;;;;;;;26.93;36.08;98499.63;5111482;28;20653;-57
2023/10/01 10:55:53;;;;;;;8.48;3.90;;;;;;;26.82;35.91;98509.03;5111299;28;20218;-57
2023/10/01 10:58:19;;;;;;;10.07;3.97;;;;;;;26.63;36.18;98469.19;5111587;28;20171;-57
2023/10/01 11:00:48;;;;;;;4.30;3.88;;;;;;;26.84;36.28;98492.88;5111235;28;20214;-57
2023/10/01 11:03:16;;;;;;;6.90;3.75;;;;;;;26.66;36.43;98488.19;5067994;28;20203;-57
2023/10/01 11:05:50;;;;;;;5.90;4.28;;;;;;;26.67;36.06;98484.53;5068239;28;20192;-57
2023/10/01 11:08:26;;;;;;;7.15;4.07;;;;;;;26.84;35.75;98490.22;5068070;28;20183;-57
2023/10/01 11:10:56;;;;;;;6.97;3.85;;;;;;;26.86;36.21;98482.88;5068467;28;20186;-58
2023/10/01 11:13:59;;;;;;;5.97;4.00;;;;;;;26.93;35.49;98489.00;5068064;28;20291;-58
2023/10/01 11:16:33;;;;;;;3.33;3.05;;;;;;;26.98;34.94;98487.34;5068443;28;20318;-57
2023/10/01 11:19:14;;;;;;;7.63;4.35;;;;;;;26.95;35.34;98466.50;5068305;28;20181;-58
2023/10/01 11:21:58;;;;;;;8.00;4.20;;;;;;;27.12;35.06;98475.66;5068279;28;20369;-58
2023/10/01 11:24:25;;;;;;;7.53;4.05;;;;;;;27.24;34.66;98481.22;5068274;28;20188;-58
2023/10/01 11:27:19;;;;;;;3.72;3.42;;;;;;;27.12;34.74;98467.69;5068235;28;20186;-56
2023/10/01 11:30:13;;;;;;;4.57;3.70;;;;;;;27.21;34.43;98476.31;4988820;28;20191;-57
2023/10/01 11:33:01;;;;;;;5.80;3.70;;;;;;;27.20;34.91;98464.88;4988981;28;20578;-57
2023/10/01 11:36:06;;;;;;;5.60;4.20;;;;;;;27.35;34.67;98460.09;4988963;28;20567;-58
2023/10/01 11:38:33;;;;;;;9.00;4.18;;;;;;;27.51;34.75;98461.50;4988154;28;20191;-58
2023/10/01 11:41:06;;;;;;;5.28;3.53;;;;;;;27.46;34.96;98432.88;5013362;28;20194;-58
2023/10/01 11:44:00;;;;;;;5.97;4.13;;;;;;;27.72;33.62;98454.03;5028245;28;20217;-57
2023/10/01 11:49:15;;;;;;;4.60;3.95;;;;;;;28.07;33.52;98463.28;5028361;28;20311;-57
2023/10/01 11:51:45;;;;;;;6.22;3.50;;;;;;;28.09;33.66;98473.69;5028066;28;20297;-57
2023/10/01 11:54:17;;;;;;;4.30;3.88;;;;;;;28.12;32.94;98458.16;5027874;28;20218;-57
2023/10/01 11:56:45;;;;;;;4.60;3.60;;;;;;;28.05;32.76;98432.59;5028140;28;20182;-57
2023/10/01 11:59:18;;;;;;;8.13;4.10;;;;;;;28.27;32.38;98447.19;5027959;28;20185;-57
2023/10/01 12:01:48;;;;;;;6.22;4.00;;;;;;;28.29;32.21;98459.22;5028077;28;20178;-58
2023/10/01 12:04:25;;;;;;;6.80;3.90;;;;;;;28.25;32.31;98452.72;5028002;28;20204;-58
2023/10/01 12:06:53;;;;;;;5.88;4.00;;;;;;;28.06;32.40;98435.06;5073674;28;20248;-57
2023/10/01 12:09:20;;;;;;;4.28;3.85;;;;;;;27.98;32.36;98422.00;5110906;28;20235;-58
2023/10/01 12:12:04;;;;;;;4.53;4.13;;;;;;;28.14;32.00;98426.81;5110854;28;20637;-57
2023/10/01 12:14:52;;;;;;;5.53;3.80;;;;;;;28.20;32.13;98417.13;5111039;28;20198;-57
2023/10/01 12:17:23;;;;;;;8.85;4.05;;;;;;;28.29;32.36;98432.59;5110732;28;20179;-57
2023/10/01 12:19:59;;;;;;;4.10;3.80;;;;;;;28.24;32.29;98405.84;5111316;28;20660;-57
2023/10/01 12:22:27;;;;;;;7.38;4.03;;;;;;;28.49;32.15;98430.66;5114513;28;20182;-57
2023/10/01 12:24:57;;;;;;;4.93;4.18;;;;;;;28.45;31.57;98412.69;5051057;28;20693;-57
2023/10/01 12:27:43;;;;;;;5.68;3.97;;;;;;;28.50;31.95;98410.97;5051338;28;20196;-58
2023/10/01 12:30:29;;;;;;;6.38;3.80;;;;;;;28.49;32.54;98417.34;5051238;28;20545;-59
2023/10/01 12:33:02;;;;;;;8.13;4.32;;;;;;;28.64;31.49;98425.00;5051088;28;20262;-58
2023/10/01 12:35:28;;;;;;;6.97;3.45;;;;;;;28.56;31.46;98399.44;5051074;28;20231;-57